createdAt,value
2022-09-16T03:48:23.074Z,99.90
2022-09-16T03:50:49.759Z,99.90
2022-09-16T03:53:16.499Z,99.90
2022-09-16T03:55:43.181Z,99.90
2022-09-16T03:58:09.880Z,99.90
2022-09-16T04:00:37.111Z,99.90
2022-09-16T04:03:03.904Z,99.90
2022-09-16T04:05:30.982Z,99.90
2022-09-16T04:07:57.668Z,99.90
2022-09-16T04:10:24.542Z,99.90
2022-09-16T04:12:51.333Z,99.90
2022-09-16T04:15:17.985Z,99.90
2022-09-16T04:17:44.784Z,99.90
2022-09-16T04:20:11.464Z,99.90
2022-09-16T04:22:38.122Z,99.90
2022-09-16T04:25:05.250Z,99.90
2022-09-16T04:27:31.950Z,99.90
2022-09-16T04:29:58.874Z,99.90
2022-09-16T04:32:25.745Z,99.90
2022-09-16T04:34:52.525Z,99.90
2022-09-16T04:37:19.186Z,99.90
2022-09-16T04:39:45.965Z,99.90
2022-09-16T04:42:12.683Z,99.90
2022-09-16T04:44:39.810Z,99.90
2022-09-16T04:47:06.594Z,99.90
2022-09-16T04:49:33.312Z,99.90
2022-09-16T04:52:00.009Z,99.90
2022-09-16T04:54:26.644Z,99.90
2022-09-16T04:56:53.320Z,99.90
2022-09-16T04:59:20.068Z,99.90
2022-09-16T05:01:46.767Z,99.90
2022-09-16T05:04:13.631Z,99.90
2022-09-16T05:06:41.627Z,99.90
2022-09-16T05:09:10.146Z,99.90
2022-09-16T05:11:38.994Z,99.90
2022-09-16T05:14:14.002Z,99.90
2022-09-16T05:16:40.646Z,99.90
2022-09-16T05:19:07.462Z,99.90
2022-09-16T05:21:36.557Z,99.90
2022-09-16T05:24:08.487Z,99.90
2022-09-16T05:26:37.297Z,99.90
2022-09-16T05:29:07.233Z,99.90
2022-09-16T05:31:36.613Z,99.90
2022-09-16T05:34:15.449Z,99.90
2022-09-16T05:36:43.899Z,99.90
2022-09-16T05:39:26.203Z,99.90
2022-09-16T05:41:56.386Z,99.90
2022-09-16T05:44:23.624Z,99.90
2022-09-16T05:46:50.327Z,99.90
2022-09-16T05:49:21.115Z,99.90
2022-09-16T05:51:49.005Z,99.90
2022-09-16T05:54:18.282Z,99.90
2022-09-16T05:56:45.562Z,99.90
2022-09-16T05:59:13.805Z,99.90
2022-09-16T06:01:40.676Z,99.90
2022-09-16T06:04:11.301Z,99.90
2022-09-16T06:06:48.222Z,99.90
2022-09-16T06:09:23.598Z,99.90
2022-09-16T06:12:00.815Z,99.90
2022-09-16T06:14:28.478Z,99.90
2022-09-16T06:16:55.753Z,99.90
2022-09-16T06:19:22.597Z,99.90
2022-09-16T06:21:49.378Z,99.90
2022-09-16T06:24:17.795Z,99.90
2022-09-16T06:26:45.426Z,99.90
2022-09-16T06:29:13.198Z,99.90
2022-09-16T06:31:40.138Z,99.90
2022-09-16T06:34:08.632Z,99.90
2022-09-16T06:36:42.812Z,99.90
2022-09-16T06:39:15.390Z,99.90
2022-09-16T06:41:42.226Z,99.90
2022-09-16T06:44:09.215Z,99.90
2022-09-16T06:46:36.473Z,99.90
2022-09-16T06:49:06.224Z,99.90
2022-09-16T06:51:34.525Z,99.90
2022-09-16T06:54:03.740Z,99.90
2022-09-16T06:56:30.787Z,99.90
2022-09-16T06:58:58.406Z,99.90
2022-09-16T07:01:28.285Z,99.90
2022-09-16T07:03:56.506Z,99.90
2022-09-16T07:06:38.141Z,99.90
2022-09-16T07:09:11.291Z,99.90
2022-09-16T07:11:38.037Z,99.90
2022-09-16T07:14:05.074Z,99.90
2022-09-16T07:16:31.874Z,99.90
2022-09-16T07:19:01.092Z,99.90
2022-09-16T07:21:30.290Z,99.90
2022-09-16T07:23:59.265Z,99.90
2022-09-16T07:26:28.117Z,99.90
2022-09-16T07:28:55.946Z,99.90
2022-09-16T07:31:28.053Z,99.90
2022-09-16T07:34:02.869Z,99.90
2022-09-16T07:36:34.388Z,99.90
2022-09-16T07:39:01.545Z,99.90
2022-09-16T07:41:30.606Z,99.90
2022-09-16T07:43:59.296Z,99.90
2022-09-16T07:46:28.483Z,99.90
2022-09-16T07:48:55.764Z,99.90
2022-09-16T07:51:24.829Z,99.90
2022-09-16T07:53:56.765Z,99.90
2022-09-16T07:56:25.778Z,99.90
2022-09-16T07:58:54.090Z,99.90
2022-09-16T08:01:21.197Z,99.90
2022-09-16T08:03:48.761Z,99.90
2022-09-16T08:06:23.699Z,99.90
2022-09-16T08:08:54.763Z,99.90
2022-09-16T08:11:22.042Z,99.90
2022-09-16T08:13:48.794Z,99.90
2022-09-16T08:16:18.073Z,99.90
2022-09-16T08:18:46.405Z,99.90
2022-09-16T08:21:19.881Z,99.90
2022-09-16T08:23:46.788Z,99.90
2022-09-16T08:26:14.530Z,99.90
2022-09-16T08:29:04.937Z,99.90
2022-09-16T08:31:29.968Z,99.90
2022-09-16T08:33:56.657Z,99.90
2022-09-16T08:36:25.193Z,99.90
2022-09-16T08:38:55.277Z,99.90
2022-09-16T08:41:25.446Z,99.90
2022-09-16T08:44:13.069Z,99.90
2022-09-16T08:47:06.250Z,99.90
2022-09-16T08:49:47.075Z,99.90
2022-09-16T08:52:18.482Z,99.90
2022-09-16T08:54:50.534Z,99.90
2022-09-16T08:57:23.038Z,99.90
2022-09-16T08:59:56.091Z,99.90
2022-09-16T09:05:50.853Z,99.90
2022-09-16T09:08:46.377Z,99.90
2022-09-16T09:11:18.957Z,99.90
2022-09-16T09:13:51.577Z,99.90
2022-09-16T09:16:46.102Z,99.90
2022-09-16T09:19:46.519Z,99.90
2022-09-16T09:22:58.335Z,99.90
2022-09-16T09:25:47.176Z,99.90
2022-09-16T09:28:21.275Z,99.90
2022-09-16T09:31:01.087Z,99.90
2022-09-16T09:34:01.143Z,99.90
2022-09-16T09:36:47.968Z,99.90
2022-09-16T09:39:34.890Z,99.90
2022-09-16T09:42:21.208Z,99.90
2022-09-16T09:45:19.895Z,99.90
2022-09-16T09:47:48.482Z,99.90
2022-09-16T09:50:22.180Z,99.90
2022-09-16T09:53:20.141Z,99.90
2022-09-16T09:55:47.536Z,99.90
2022-09-16T09:58:37.162Z,99.90
2022-09-16T10:01:04.446Z,99.90
2022-09-16T10:03:31.630Z,99.90
2022-09-16T10:05:58.444Z,99.90
2022-09-16T10:08:29.982Z,99.90
2022-09-16T10:11:01.854Z,99.90
2022-09-16T10:13:30.907Z,99.90
2022-09-16T10:16:20.707Z,99.90
2022-09-16T10:19:00.583Z,99.90
2022-09-16T10:21:46.974Z,99.90
2022-09-16T10:24:34.689Z,99.90
2022-09-16T10:27:17.405Z,94.70
2022-09-16T10:29:44.195Z,89.50
2022-09-16T10:32:18.037Z,82.30
2022-09-16T10:34:46.501Z,77.00
2022-09-16T10:37:17.869Z,72.10
2022-09-16T10:39:54.452Z,70.70
2022-09-16T10:42:26.659Z,72.00
2022-09-16T10:44:58.622Z,70.60
2022-09-16T10:47:31.258Z,69.80
2022-09-16T10:50:05.368Z,67.00
2022-09-16T10:52:41.810Z,68.30
2022-09-16T10:55:33.031Z,69.20
2022-09-16T10:58:16.232Z,69.40
2022-09-16T11:01:04.030Z,71.60
2022-09-16T11:04:01.066Z,76.20
2022-09-16T11:06:55.639Z,80.80
2022-09-16T11:09:32.616Z,85.90
2022-09-16T11:12:14.468Z,90.40
2022-09-16T11:14:55.831Z,93.50
2022-09-16T11:17:55.201Z,95.60
2022-09-16T11:20:33.267Z,96.60
2022-09-16T11:23:06.191Z,98.40
2022-09-16T11:26:01.049Z,99.30
2022-09-16T11:28:46.342Z,99.90
2022-09-16T11:31:38.711Z,99.90
2022-09-16T11:34:17.826Z,99.90
2022-09-16T11:36:50.752Z,99.90
2022-09-16T11:39:38.309Z,99.90
2022-09-16T11:42:15.158Z,99.90
2022-09-16T11:44:59.551Z,99.90
2022-09-16T11:47:41.071Z,99.90
2022-09-16T11:50:49.485Z,99.90
2022-09-16T11:54:00.216Z,99.90
2022-09-16T11:56:55.501Z,99.90
2022-09-16T11:59:35.106Z,99.90
2022-09-16T12:02:22.080Z,99.90
2022-09-16T12:05:06.154Z,99.90
2022-09-16T12:07:43.466Z,99.90
2022-09-16T12:10:39.898Z,99.90
2022-09-16T12:13:29.269Z,99.90
2022-09-16T12:16:07.365Z,99.90
2022-09-16T12:18:56.574Z,99.90
2022-09-16T12:21:38.110Z,99.90
2022-09-16T12:24:13.672Z,99.90
2022-09-16T12:26:51.577Z,99.90
2022-09-16T12:29:43.863Z,99.90
2022-09-16T12:32:17.731Z,99.90
2022-09-16T12:34:57.455Z,99.90
2022-09-16T12:37:37.276Z,99.90
2022-09-16T12:40:05.138Z,99.90
2022-09-16T12:42:56.247Z,99.90
2022-09-16T12:45:34.865Z,99.90
2022-09-16T12:48:19.994Z,99.90
2022-09-16T12:51:27.723Z,99.90
2022-09-16T12:54:15.258Z,99.90
2022-09-16T12:57:00.397Z,99.90
2022-09-16T12:59:35.827Z,99.90
2022-09-16T13:02:26.463Z,99.90
2022-09-16T13:04:57.462Z,99.90
2022-09-16T13:07:35.464Z,99.90
2022-09-16T13:10:20.872Z,99.90
2022-09-16T13:12:56.026Z,99.90
2022-09-16T13:15:45.112Z,99.90
2022-09-16T13:18:17.820Z,99.90
2022-09-16T13:20:59.276Z,99.90
2022-09-16T13:23:35.982Z,99.50
2022-09-16T13:26:08.320Z,98.10
2022-09-16T13:28:40.746Z,94.10
2022-09-16T13:31:17.579Z,93.30
2022-09-16T13:34:01.487Z,92.20
2022-09-16T13:36:32.355Z,93.50
2022-09-16T13:39:05.406Z,93.50
2022-09-16T13:41:36.015Z,93.00
2022-09-16T13:44:25.386Z,93.90
2022-09-16T13:46:52.057Z,94.20
2022-09-16T13:49:27.773Z,94.30
2022-09-16T13:51:54.900Z,94.50
2022-09-16T13:55:06.318Z,95.60
2022-09-16T13:57:52.856Z,96.00
2022-09-16T14:00:52.201Z,96.50
2022-09-16T14:03:50.913Z,97.20
2022-09-16T14:06:47.790Z,99.00
2022-09-16T14:09:47.858Z,97.70
2022-09-16T14:12:22.741Z,96.70
2022-09-16T14:14:50.098Z,96.30
2022-09-16T14:17:20.711Z,96.10
2022-09-16T14:19:51.245Z,95.00
2022-09-16T14:22:22.650Z,94.70
2022-09-16T14:24:56.467Z,94.80
2022-09-16T14:27:36.580Z,95.80
2022-09-16T14:30:14.849Z,95.80
2022-09-16T14:32:42.113Z,95.20
2022-09-16T14:35:18.578Z,95.00
2022-09-16T14:37:47.805Z,95.10
2022-09-16T14:40:17.855Z,95.00
2022-09-16T14:42:54.093Z,94.30
2022-09-16T14:45:21.353Z,93.90
2022-09-16T14:47:52.077Z,93.40
2022-09-16T14:50:28.453Z,93.70
2022-09-16T14:53:00.146Z,94.20
2022-09-16T14:55:31.193Z,95.30
2022-09-16T14:57:59.110Z,95.80
2022-09-16T15:00:37.892Z,95.70
2022-09-16T15:03:14.172Z,96.10
2022-09-16T15:05:44.582Z,97.20
2022-09-16T15:08:27.370Z,96.60
2022-09-16T15:10:57.956Z,97.30
2022-09-16T15:13:28.046Z,96.70
2022-09-16T15:15:57.440Z,96.50
2022-09-16T15:18:33.109Z,97.40
2022-09-16T15:21:19.750Z,98.10
2022-09-16T15:23:49.939Z,97.70
2022-09-16T15:26:42.918Z,97.60
2022-09-16T15:29:18.345Z,98.10
2022-09-16T15:31:46.029Z,97.10
2022-09-16T15:34:18.921Z,98.10
2022-09-16T15:36:51.650Z,97.80
2022-09-16T15:39:31.762Z,98.40
2022-09-16T15:42:16.418Z,98.40
2022-09-16T15:45:01.373Z,99.40
2022-09-16T15:47:34.394Z,99.80
2022-09-16T15:50:06.677Z,99.80
2022-09-16T15:52:48.781Z,99.50
2022-09-16T15:55:31.118Z,99.90
2022-09-16T15:58:04.970Z,99.30
2022-09-16T16:00:55.055Z,99.90
2022-09-16T16:03:21.861Z,99.90
2022-09-16T16:05:52.941Z,99.90
2022-09-16T16:08:44.167Z,99.90
2022-09-16T16:11:14.107Z,99.90
2022-09-16T16:13:41.373Z,99.90
2022-09-16T16:16:08.648Z,99.90
2022-09-16T16:18:36.750Z,99.90
2022-09-16T16:21:12.405Z,99.90
2022-09-16T16:23:39.581Z,99.90
2022-09-16T16:26:09.341Z,99.90
2022-09-16T16:28:38.387Z,99.90
2022-09-16T16:31:18.748Z,99.90
2022-09-16T16:33:47.759Z,99.90
2022-09-16T16:36:16.646Z,99.90
2022-09-16T16:38:46.231Z,99.90
2022-09-16T16:41:13.557Z,99.90
2022-09-16T16:43:40.525Z,99.90
2022-09-16T16:46:07.368Z,99.90
2022-09-16T16:48:34.233Z,99.90
2022-09-16T16:51:06.311Z,99.90
2022-09-16T16:53:33.205Z,99.90
2022-09-16T16:56:15.068Z,99.90
2022-09-16T16:58:45.625Z,99.90
2022-09-16T17:01:14.818Z,99.90
2022-09-16T17:03:42.342Z,99.90
2022-09-16T17:06:09.074Z,99.90
2022-09-16T17:08:35.866Z,99.90
2022-09-16T17:11:21.352Z,99.90
2022-09-16T17:13:50.378Z,99.90
2022-09-16T17:16:20.374Z,99.90
2022-09-16T17:18:48.034Z,99.90
2022-09-16T17:21:23.909Z,99.90
2022-09-16T17:23:51.543Z,99.90
2022-09-16T17:26:19.142Z,99.90
2022-09-16T17:28:50.609Z,99.90
2022-09-16T17:31:26.746Z,99.90
2022-09-16T17:33:55.092Z,99.90
2022-09-16T17:36:24.238Z,99.90
2022-09-16T17:39:06.609Z,99.90
2022-09-16T17:41:33.867Z,99.90
2022-09-16T17:44:05.818Z,99.90
2022-09-16T17:46:32.965Z,99.90
2022-09-16T17:49:01.049Z,99.90
2022-09-16T17:51:28.296Z,99.90
2022-09-16T17:53:54.986Z,99.90
2022-09-16T17:56:21.696Z,99.90
2022-09-16T17:58:51.037Z,99.90
2022-09-16T18:01:20.261Z,99.90
2022-09-16T18:03:49.172Z,99.90
2022-09-16T18:06:18.969Z,99.90
2022-09-16T18:08:46.320Z,99.90
2022-09-16T18:11:15.672Z,99.90
2022-09-16T18:13:43.517Z,99.90
2022-09-16T18:16:19.597Z,99.90
2022-09-16T18:18:53.955Z,99.90
2022-09-16T18:21:23.942Z,99.90
2022-09-16T18:23:58.966Z,99.90
2022-09-16T18:26:26.674Z,99.90
2022-09-16T18:29:11.299Z,99.90
2022-09-16T18:31:48.004Z,99.90
2022-09-16T18:34:15.978Z,99.90
2022-09-16T18:36:42.783Z,99.90
2022-09-16T18:39:16.935Z,99.90
2022-09-16T18:41:45.234Z,99.90
2022-09-16T18:44:15.026Z,99.90
2022-09-16T18:46:42.028Z,99.90
2022-09-16T18:49:11.756Z,99.90
2022-09-16T18:51:41.267Z,99.90
2022-09-16T18:54:13.070Z,99.90
2022-09-16T18:56:41.051Z,99.90
2022-09-16T18:59:22.163Z,99.90
2022-09-16T19:01:50.857Z,99.90
2022-09-16T19:04:20.267Z,99.90
2022-09-16T19:06:49.277Z,99.90
2022-09-16T19:09:19.149Z,99.90
2022-09-16T19:11:46.330Z,99.90
2022-09-16T19:14:13.909Z,99.90
2022-09-16T19:16:44.724Z,99.90
2022-09-16T19:19:13.955Z,99.90
2022-09-16T19:21:42.081Z,99.90
2022-09-16T19:24:14.111Z,99.90
2022-09-16T19:26:42.545Z,99.90
2022-09-16T19:29:10.162Z,99.90
2022-09-16T19:31:38.964Z,99.90
2022-09-16T19:34:06.006Z,99.90
2022-09-16T19:36:34.440Z,99.90
2022-09-16T19:39:01.220Z,99.90
2022-09-16T19:41:30.327Z,99.90
2022-09-16T19:43:59.566Z,99.90
2022-09-16T19:46:27.445Z,99.90
2022-09-16T19:48:54.758Z,99.90
2022-09-16T19:51:23.746Z,99.90
2022-09-16T19:53:51.656Z,99.90
2022-09-16T19:56:27.030Z,99.90
2022-09-16T19:58:54.677Z,99.90
2022-09-16T20:01:24.710Z,99.90
2022-09-16T20:03:52.422Z,99.90
2022-09-16T20:06:21.783Z,99.90
2022-09-16T20:08:52.763Z,99.90
2022-09-16T20:11:21.571Z,99.90
2022-09-16T20:13:54.218Z,99.90
2022-09-16T20:16:23.037Z,99.90
2022-09-16T20:18:50.063Z,99.90
2022-09-16T20:21:19.045Z,99.90
2022-09-16T20:23:46.443Z,99.90
2022-09-16T20:26:19.300Z,99.90
2022-09-16T20:28:51.039Z,99.90
2022-09-16T20:31:20.832Z,99.90
2022-09-16T20:33:48.358Z,99.90
2022-09-16T20:36:19.845Z,99.90
2022-09-16T20:38:46.981Z,99.90
2022-09-16T20:41:15.317Z,99.90
2022-09-16T20:43:41.972Z,99.90
2022-09-16T20:46:15.742Z,99.90
2022-09-16T20:48:43.623Z,99.90
2022-09-16T20:51:20.994Z,99.90
2022-09-16T20:53:56.052Z,99.90
2022-09-16T20:56:22.838Z,99.90
2022-09-16T20:58:50.243Z,99.90
2022-09-16T21:01:22.724Z,99.90
2022-09-16T21:03:57.690Z,99.90
2022-09-16T21:06:26.194Z,99.90
2022-09-16T21:08:59.372Z,99.90
2022-09-16T21:11:30.213Z,99.90
2022-09-16T21:13:59.603Z,99.90
2022-09-16T21:16:27.830Z,99.90
2022-09-16T21:18:56.161Z,99.90
2022-09-16T21:21:27.714Z,99.90
2022-09-16T21:23:56.396Z,99.90
2022-09-16T21:26:25.798Z,99.90
2022-09-16T21:28:55.200Z,99.90
2022-09-16T21:31:22.212Z,99.90
2022-09-16T21:33:55.033Z,99.90
2022-09-16T21:36:23.186Z,99.90
2022-09-16T21:38:50.029Z,99.90
2022-09-16T21:41:21.205Z,99.90
2022-09-16T21:43:50.811Z,99.90
2022-09-16T21:46:20.109Z,99.90
2022-09-16T21:48:50.481Z,99.90
2022-09-16T21:51:19.718Z,99.90
2022-09-16T21:53:47.873Z,99.90
2022-09-16T21:56:20.504Z,99.90
2022-09-16T21:58:49.084Z,99.90
2022-09-16T22:01:17.498Z,99.90
2022-09-16T22:03:46.318Z,99.90
2022-09-16T22:06:15.492Z,99.90
2022-09-16T22:08:48.935Z,99.90
2022-09-16T22:11:19.600Z,99.90
2022-09-16T22:13:46.403Z,99.90
2022-09-16T22:16:17.317Z,99.90
2022-09-16T22:18:44.755Z,99.90
2022-09-16T22:21:13.738Z,99.90
2022-09-16T22:23:40.527Z,99.90
2022-09-16T22:26:12.660Z,99.90
2022-09-16T22:28:40.365Z,99.90
2022-09-16T22:31:11.754Z,99.90
2022-09-16T22:33:41.039Z,99.90
2022-09-16T22:36:10.303Z,99.90
2022-09-16T22:38:37.165Z,99.90
2022-09-16T22:41:08.672Z,99.90
2022-09-16T22:43:40.360Z,99.90
2022-09-16T22:46:29.589Z,99.90
2022-09-16T22:48:58.162Z,99.90
2022-09-16T22:51:25.645Z,99.90
2022-09-16T22:53:53.649Z,99.90
2022-09-16T22:56:31.828Z,99.90
2022-09-16T22:59:03.428Z,99.90
2022-09-16T23:01:35.814Z,99.90
2022-09-16T23:04:04.915Z,99.90
2022-09-16T23:06:33.333Z,99.90
2022-09-16T23:09:00.855Z,99.90
2022-09-16T23:11:34.817Z,99.90
2022-09-16T23:14:02.496Z,99.90
2022-09-16T23:16:31.749Z,99.90
2022-09-16T23:19:00.981Z,99.90
2022-09-16T23:21:27.992Z,99.90
2022-09-16T23:23:57.067Z,99.90
2022-09-16T23:26:27.392Z,99.90
2022-09-16T23:28:56.590Z,99.90
